Niederrhein Airport EDLV

Flugplatz Daten

Name: Niederrhein Airport

Ident: EDLV

Lat: 51,60240173

Long: 6,142169952

Platzhöhe: 106 ft

IataCode: NRN

City: Weeze

Metar

2022/08/10 19:50
EDLV 101950Z 04003KT 010V070 CAVOK 25/11 Q1023

Taf

2022/08/10 18:27
TAF EDLV 101700Z 1018/1118 04004KT CAVOK
Gewünschte Webcam nicht vorhanden? Dann fügen Sie eine hinzu. Sie wird dann so schnell wie möglich freigeschaltet
Url: Title: